Time;durP1;ratioP1;P1;durP2;ratioP2;P2;SDS_P1;SDS_P2;PMS_P1;PMS_P2;Temp;Humidity;BMP_temperature;BMP_pressure;BME280_temperature;BME280_humidity;BME280_pressure;Samples;Min_cycle;Max_cycle;Signal;HPM_P1;HPM_P2
2021/10/03 00:02:07;;;;;;;27.30;15.98;;;;;;;3.90;100.00;100557.55;1695428;84;21408;-57
2021/10/03 00:04:35;;;;;;;28.73;15.23;;;;;;;3.86;100.00;100555.75;1695385;83;20935;-57
2021/10/03 00:07:02;;;;;;;29.60;16.42;;;;;;;3.87;100.00;100559.23;1695421;83;21083;-57
2021/10/03 00:09:30;;;;;;;25.15;17.12;;;;;;;3.84;100.00;100552.96;1694904;83;21429;-57
2021/10/03 00:11:57;;;;;;;29.75;16.55;;;;;;;3.79;100.00;100555.35;1665463;84;21509;-57
2021/10/03 00:14:25;;;;;;;24.57;16.67;;;;;;;3.77;100.00;100554.70;1695302;84;20912;-57
2021/10/03 00:16:52;;;;;;;33.48;16.82;;;;;;;3.73;100.00;100560.09;1695555;84;21311;-57
2021/10/03 00:19:21;;;;;;;26.52;17.60;;;;;;;3.69;100.00;100554.81;1695642;83;21122;-57
2021/10/03 00:21:50;;;;;;;31.37;18.37;;;;;;;3.69;100.00;100550.33;1695331;83;20999;-57
2021/10/03 00:24:17;;;;;;;30.20;17.35;;;;;;;3.67;100.00;100551.52;1666595;84;21002;-57
2021/10/03 00:26:43;;;;;;;26.75;16.85;;;;;;;3.59;100.00;100548.45;1695473;83;20912;-57
2021/10/03 00:29:10;;;;;;;32.38;18.57;;;;;;;3.56;100.00;100550.98;1689421;83;20979;-57
2021/10/03 00:31:37;;;;;;;26.68;16.07;;;;;;;3.50;100.00;100554.86;1695545;84;21124;-57
2021/10/03 00:34:03;;;;;;;31.00;17.77;;;;;;;3.43;100.00;100548.16;1689118;83;20836;-57
2021/10/03 00:36:30;;;;;;;27.95;17.35;;;;;;;3.37;100.00;100551.01;1680485;84;20928;-57
2021/10/03 00:38:58;;;;;;;30.25;17.52;;;;;;;3.31;100.00;100549.09;1678002;84;21402;-57
2021/10/03 00:41:24;;;;;;;31.73;18.10;;;;;;;3.26;100.00;100546.17;1661226;85;20857;-57
2021/10/03 00:43:51;;;;;;;36.85;21.07;;;;;;;3.18;100.00;100544.91;1661210;85;21407;-57
2021/10/03 00:46:18;;;;;;;26.40;17.50;;;;;;;3.16;100.00;100541.60;1677870;85;20967;-57
2021/10/03 00:48:45;;;;;;;29.37;17.70;;;;;;;3.13;100.00;100535.34;1699537;81;21325;-57
2021/10/03 00:51:11;;;;;;;33.50;19.55;;;;;;;3.10;100.00;100531.73;1686138;83;20962;-57
2021/10/03 00:53:38;;;;;;;36.23;18.32;;;;;;;3.03;100.00;100535.59;1728722;82;21027;-57
2021/10/03 00:56:07;;;;;;;28.55;17.70;;;;;;;3.02;100.00;100536.61;1729461;83;21144;-57
2021/10/03 00:58:34;;;;;;;28.35;17.37;;;;;;;2.98;100.00;100532.16;1681661;83;21411;-57
2021/10/03 01:01:01;;;;;;;29.57;18.30;;;;;;;2.94;100.00;100527.39;1677875;84;20897;-57
2021/10/03 01:03:28;;;;;;;27.73;18.12;;;;;;;2.88;100.00;100526.80;1677811;84;20984;-57
2021/10/03 01:05:54;;;;;;;38.28;18.17;;;;;;;2.83;100.00;100527.84;1677220;84;20964;-57
2021/10/03 01:08:21;;;;;;;34.60;17.35;;;;;;;2.83;100.00;100531.31;1678006;84;21485;-57
2021/10/03 01:10:49;;;;;;;28.75;18.48;;;;;;;2.83;100.00;100535.80;1661589;85;21387;-57
2021/10/03 01:13:18;;;;;;;35.20;17.00;;;;;;;2.82;100.00;100529.67;1678125;85;20885;-57
2021/10/03 01:15:45;;;;;;;31.65;18.75;;;;;;;2.78;100.00;100531.02;1677670;84;20842;-57
2021/10/03 01:18:13;;;;;;;27.30;18.15;;;;;;;2.76;100.00;100530.38;1677993;84;20889;-57
2021/10/03 01:20:40;;;;;;;24.82;17.67;;;;;;;2.70;100.00;100533.75;1678086;85;21046;-57
2021/10/03 01:23:08;;;;;;;26.15;17.05;;;;;;;2.67;100.00;100532.28;1677586;85;20940;-57
2021/10/03 01:25:38;;;;;;;;;;;;;;;2.65;100.00;100532.95;1680330;84;20917;-57
2021/10/03 01:28:04;;;;;;;;;;;;;;;2.62;100.00;100531.15;1680303;85;20376;-57
2021/10/03 01:30:31;;;;;;;40.75;19.62;;;;;;;2.57;100.00;100526.38;1677787;85;20110;-57
2021/10/03 01:32:58;;;;;;;35.95;19.27;;;;;;;2.60;100.00;100530.02;1677852;84;21092;-57
2021/10/03 01:35:25;;;;;;;33.42;18.55;;;;;;;2.62;100.00;100524.52;1678154;84;20944;-57
2021/10/03 01:37:51;;;;;;;29.20;19.40;;;;;;;2.60;100.00;100522.06;1677891;84;21352;-57
2021/10/03 01:40:19;;;;;;;28.25;18.77;;;;;;;2.56;100.00;100526.06;1677974;85;20904;-57
2021/10/03 01:42:46;;;;;;;24.27;17.37;;;;;;;2.52;100.00;100519.46;1678237;84;21038;-57
2021/10/03 01:45:16;;;;;;;32.95;19.73;;;;;;;2.49;100.00;100526.45;1677790;84;21076;-57
2021/10/03 01:48:08;;;;;;;36.55;19.60;;;;;;;2.45;100.00;100524.66;1677678;85;20892;-58
2021/10/03 01:50:52;;;;;;;33.23;19.55;;;;;;;2.39;100.00;100528.52;1677565;84;20972;-57
2021/10/03 01:53:29;;;;;;;28.10;18.12;;;;;;;2.35;100.00;100527.55;1677599;84;20960;-57
2021/10/03 01:55:56;;;;;;;28.42;19.15;;;;;;;2.38;100.00;100530.34;1677796;84;20865;-57
2021/10/03 01:58:26;;;;;;;33.92;18.30;;;;;;;2.41;100.00;100530.48;1677936;84;21914;-57
2021/10/03 02:00:58;;;;;;;38.15;21.20;;;;;;;2.46;100.00;100530.78;1667571;84;20912;-57
2021/10/03 02:03:25;;;;;;;54.50;23.30;;;;;;;2.46;100.00;100528.95;1674007;84;20874;-57
2021/10/03 02:05:51;;;;;;;53.70;26.50;;;;;;;2.50;100.00;100534.70;1661544;85;21414;-56
2021/10/03 02:08:18;;;;;;;53.38;25.97;;;;;;;2.52;100.00;100526.08;1661674;86;20971;-57
2021/10/03 02:10:48;;;;;;;48.80;24.82;;;;;;;2.53;100.00;100533.87;1661269;85;21168;-57
2021/10/03 02:13:18;;;;;;;48.30;24.07;;;;;;;2.52;100.00;100534.88;1661481;86;20975;-57
2021/10/03 02:15:44;;;;;;;;;;;;;;;2.51;100.00;100532.40;1664055;85;20925;-57
2021/10/03 02:18:13;;;;;;;70.87;35.17;;;;;;;2.47;100.00;100538.53;1660956;86;20096;-56
2021/10/03 02:20:40;;;;;;;95.90;36.10;;;;;;;2.39;100.00;100535.14;1661466;85;20920;-57
2021/10/03 02:23:09;;;;;;;58.48;24.82;;;;;;;2.29;100.00;100539.34;1661544;86;21103;-56
2021/10/03 02:25:43;;;;;;;38.08;21.12;;;;;;;2.20;100.00;100532.44;1661425;85;20912;-57
2021/10/03 02:28:17;;;;;;;41.60;22.45;;;;;;;2.12;100.00;100528.83;1661480;85;21414;-57
2021/10/03 02:30:44;;;;;;;37.33;22.13;;;;;;;2.08;100.00;100531.53;1661595;85;21359;-57
2021/10/03 02:33:11;;;;;;;38.67;21.80;;;;;;;2.07;100.00;100531.19;1661721;86;20976;-57
2021/10/03 02:35:38;;;;;;;41.13;21.45;;;;;;;2.02;100.00;100528.73;1661492;84;21119;-57
2021/10/03 02:38:07;;;;;;;38.63;21.77;;;;;;;2.01;100.00;100531.05;1635525;86;20927;-57
2021/10/03 02:40:34;;;;;;;33.65;20.32;;;;;;;1.96;100.00;100522.33;1656492;85;20929;-57
2021/10/03 02:43:05;;;;;;;33.53;19.50;;;;;;;1.95;100.00;100521.16;1656577;85;20865;-56
2021/10/03 02:45:29;;;;;;;33.98;21.12;;;;;;;1.96;100.00;100527.63;1656537;86;20916;-57
2021/10/03 02:47:56;;;;;;;29.85;18.82;;;;;;;1.99;100.00;100532.56;1656716;85;21734;-57
2021/10/03 02:50:22;;;;;;;28.65;18.42;;;;;;;2.01;100.00;100534.55;1656481;85;20893;-57
2021/10/03 02:52:49;;;;;;;36.50;21.42;;;;;;;1.97;100.00;100535.87;1656578;86;21012;-57
2021/10/03 02:55:16;;;;;;;51.15;23.18;;;;;;;1.93;100.00;100537.21;1655997;86;20845;-57
2021/10/03 02:57:43;;;;;;;48.05;26.07;;;;;;;1.92;100.00;100541.69;1656524;85;20873;-57
2021/10/03 03:00:12;;;;;;;42.08;23.62;;;;;;;1.94;100.00;100545.50;1656375;85;21122;-57
2021/10/03 03:02:39;;;;;;;47.83;25.25;;;;;;;1.94;100.00;100545.50;1656198;85;20932;-57
2021/10/03 03:05:08;;;;;;;43.13;26.57;;;;;;;1.92;100.00;100550.95;1656297;86;21375;-57
2021/10/03 03:07:36;;;;;;;56.33;29.37;;;;;;;1.91;100.00;100546.67;1656451;85;21324;-57
2021/10/03 03:10:06;;;;;;;47.58;26.02;;;;;;;1.94;100.00;100554.77;1656553;86;21328;-57
2021/10/03 03:12:33;;;;;;;59.08;30.17;;;;;;;1.95;100.00;100551.61;1655989;85;21116;-57
2021/10/03 03:14:59;;;;;;;59.88;31.45;;;;;;;1.95;100.00;100551.11;1656338;86;20973;-57
2021/10/03 03:17:26;;;;;;;53.65;28.45;;;;;;;1.90;100.00;100543.68;1656334;85;20868;-57
2021/10/03 03:19:53;;;;;;;57.17;28.35;;;;;;;1.87;100.00;100549.33;1656536;85;20980;-56
2021/10/03 03:22:19;;;;;;;45.95;25.77;;;;;;;1.77;100.00;100545.25;1656691;85;20881;-56
2021/10/03 03:24:46;;;;;;;42.55;23.50;;;;;;;1.67;100.00;100548.92;1656604;86;21026;-56
2021/10/03 03:27:13;;;;;;;39.10;22.65;;;;;;;1.64;100.00;100548.42;1656193;86;21019;-57
2021/10/03 03:29:40;;;;;;;29.55;18.90;;;;;;;1.64;100.00;100543.98;1656457;85;20952;-57
2021/10/03 03:32:07;;;;;;;35.78;21.05;;;;;;;1.65;100.00;100550.91;1656519;85;20976;-56
2021/10/03 03:34:33;;;;;;;34.78;20.43;;;;;;;1.65;100.00;100545.61;1656510;85;21324;-57
2021/10/03 03:37:00;;;;;;;33.15;20.45;;;;;;;1.67;100.00;100550.75;1669207;83;21174;-57
2021/10/03 03:39:28;;;;;;;31.07;18.05;;;;;;;1.68;100.00;100557.68;1685719;83;20976;-57
2021/10/03 03:41:55;;;;;;;28.50;18.45;;;;;;;1.67;100.00;100554.72;1685541;83;20977;-57
2021/10/03 03:44:22;;;;;;;32.45;19.45;;;;;;;1.66;100.00;100553.05;1685377;84;20921;-57
2021/10/03 03:46:48;;;;;;;30.45;19.32;;;;;;;1.64;100.00;100558.53;1685723;85;21423;-56
2021/10/03 03:49:15;;;;;;;32.80;19.52;;;;;;;1.63;100.00;100558.19;1685683;83;21125;-57
2021/10/03 03:51:41;;;;;;;37.88;20.48;;;;;;;1.68;100.00;100547.91;1685154;85;20913;-57
2021/10/03 03:54:09;;;;;;;29.77;19.92;;;;;;;1.67;100.00;100546.78;1685627;83;20894;-57
2021/10/03 03:56:35;;;;;;;33.25;18.57;;;;;;;1.66;100.00;100547.75;1685778;83;20873;-57
2021/10/03 03:59:02;;;;;;;32.10;21.25;;;;;;;1.64;100.00;100549.27;1685533;83;20917;-56
2021/10/03 04:01:29;;;;;;;35.88;20.48;;;;;;;1.68;100.00;100551.06;1685755;84;21925;-57
2021/10/03 04:03:56;;;;;;;38.90;20.23;;;;;;;1.66;100.00;100549.08;1685351;83;20980;-57
2021/10/03 04:06:22;;;;;;;37.88;20.92;;;;;;;1.66;100.00;100559.16;1685759;84;20916;-56
2021/10/03 04:08:51;;;;;;;28.60;19.90;;;;;;;1.66;100.00;100555.70;1685653;84;21395;-57
2021/10/03 04:11:18;;;;;;;31.35;22.27;;;;;;;1.64;100.00;100553.23;1685538;84;21398;-57
2021/10/03 04:13:45;;;;;;;29.48;20.90;;;;;;;1.63;100.00;100558.69;1685862;84;21725;-57
2021/10/03 04:16:11;;;;;;;27.58;19.65;;;;;;;1.62;100.00;100561.02;1685613;84;20961;-57
2021/10/03 04:18:38;;;;;;;33.90;20.68;;;;;;;1.64;100.00;100569.59;1685944;85;21462;-57
2021/10/03 04:21:04;;;;;;;31.45;20.57;;;;;;;1.65;100.00;100565.97;1685897;85;21371;-57
2021/10/03 04:23:31;;;;;;;34.60;20.30;;;;;;;1.66;100.00;100568.42;1685859;83;21359;-57
2021/10/03 04:25:57;;;;;;;31.30;19.87;;;;;;;1.67;100.00;100560.01;1685709;85;21130;-57
2021/10/03 04:28:25;;;;;;;36.45;20.80;;;;;;;1.71;100.00;100562.63;1686018;85;20917;-58
2021/10/03 04:30:53;;;;;;;32.90;20.70;;;;;;;1.76;100.00;100558.96;1686123;85;21419;-57
2021/10/03 04:33:20;;;;;;;31.57;19.27;;;;;;;1.78;100.00;100564.91;1686095;85;20933;-57
2021/10/03 04:35:46;;;;;;;47.90;21.93;;;;;;;1.81;100.00;100573.83;1685583;85;21316;-57
2021/10/03 04:38:13;;;;;;;31.40;20.72;;;;;;;1.86;100.00;100571.52;1661874;85;21923;-57
2021/10/03 04:40:40;;;;;;;37.30;20.50;;;;;;;1.94;100.00;100566.68;1656612;86;20980;-57
2021/10/03 04:43:07;;;;;;;35.30;22.10;;;;;;;2.12;100.00;100568.56;1656877;85;21039;-57
2021/10/03 04:45:33;;;;;;;38.15;21.77;;;;;;;2.35;100.00;100568.62;1656313;85;20845;-57
2021/10/03 04:48:01;;;;;;;40.35;20.30;;;;;;;2.60;100.00;100567.13;1656134;85;21023;-57
2021/10/03 04:50:28;;;;;;;41.08;20.37;;;;;;;2.84;100.00;100575.87;1656829;85;21132;-57
2021/10/03 04:52:55;;;;;;;32.50;18.77;;;;;;;3.10;100.00;100580.30;1656208;86;20968;-57
2021/10/03 04:55:22;;;;;;;33.35;18.75;;;;;;;3.36;100.00;100575.09;1656444;86;20900;-57
2021/10/03 04:57:50;;;;;;;38.63;21.87;;;;;;;3.63;100.00;100579.77;1656674;84;20920;-57
2021/10/03 05:00:17;;;;;;;35.43;18.85;;;;;;;3.93;100.00;100582.41;1656554;86;20967;-57
2021/10/03 05:02:43;;;;;;;31.35;19.80;;;;;;;4.20;100.00;100578.75;1656912;86;21167;-57
2021/10/03 05:05:10;;;;;;;36.35;21.60;;;;;;;4.45;100.00;100579.22;1656356;85;20909;-57
2021/10/03 05:07:37;;;;;;;32.85;21.90;;;;;;;4.69;100.00;100590.82;1656748;86;20963;-57
2021/10/03 05:10:05;;;;;;;27.20;19.00;;;;;;;4.85;100.00;100580.93;1656836;86;21375;-57
2021/10/03 05:12:32;;;;;;;28.87;17.75;;;;;;;5.05;100.00;100581.12;1656708;85;20873;-57
2021/10/03 05:15:01;;;;;;;27.62;17.90;;;;;;;5.26;100.00;100585.58;1656899;85;20941;-58
2021/10/03 05:17:27;;;;;;;28.85;18.62;;;;;;;5.46;100.00;100585.70;1656699;85;20924;-57
2021/10/03 05:19:55;;;;;;;31.33;18.20;;;;;;;5.65;100.00;100590.34;1656480;86;20881;-58
2021/10/03 05:22:24;;;;;;;27.10;17.35;;;;;;;5.86;100.00;100589.44;1655940;86;20985;-59
2021/10/03 05:24:53;;;;;;;27.52;17.05;;;;;;;6.00;100.00;100597.00;1693357;82;20900;-58
2021/10/03 05:27:19;;;;;;;27.17;16.25;;;;;;;6.20;100.00;100591.78;1704227;83;21177;-58
2021/10/03 05:29:46;;;;;;;25.12;15.95;;;;;;;6.48;100.00;100592.98;1704144;84;20892;-58
2021/10/03 05:32:14;;;;;;;23.00;14.23;;;;;;;6.71;100.00;100595.80;1704186;84;20971;-59
2021/10/03 05:34:40;;;;;;;23.12;14.85;;;;;;;6.86;100.00;100595.12;1703427;84;20939;-58
2021/10/03 05:37:07;;;;;;;23.98;14.58;;;;;;;7.02;100.00;100594.70;1705905;82;20919;-58
2021/10/03 05:39:34;;;;;;;25.72;15.45;;;;;;;7.24;100.00;100599.32;1707877;83;21780;-58
2021/10/03 05:42:00;;;;;;;20.08;14.78;;;;;;;7.39;100.00;100596.43;1712457;82;20956;-58
2021/10/03 05:44:27;;;;;;;24.85;15.00;;;;;;;7.72;100.00;100596.91;1711647;83;20899;-58
2021/10/03 05:46:55;;;;;;;24.85;14.35;;;;;;;8.02;100.00;100603.09;1711330;83;20959;-59
2021/10/03 05:49:21;;;;;;;23.92;13.98;;;;;;;8.03;100.00;100604.72;1712146;83;20963;-58
2021/10/03 05:51:48;;;;;;;22.42;15.85;;;;;;;8.19;100.00;100608.79;1712008;83;21227;-58
2021/10/03 05:54:14;;;;;;;23.35;15.08;;;;;;;8.51;100.00;100615.05;1712044;83;20884;-58
2021/10/03 05:56:41;;;;;;;27.95;19.07;;;;;;;8.80;100.00;100614.98;1711781;83;20916;-58
2021/10/03 05:59:12;;;;;;;20.90;15.83;;;;;;;9.06;100.00;100616.63;1711947;83;20935;-58
2021/10/03 06:01:40;;;;;;;25.48;16.45;;;;;;;9.19;99.31;100615.20;1711543;82;21050;-59
2021/10/03 06:04:07;;;;;;;;;;;;;;;9.20;97.70;100620.03;1714380;83;21833;-59
2021/10/03 06:06:34;;;;;;;31.00;18.95;;;;;;;9.18;98.51;100618.91;1707231;83;20137;-59
2021/10/03 06:09:02;;;;;;;25.75;16.30;;;;;;;9.42;98.33;100615.11;1694311;83;20963;-60
2021/10/03 06:11:29;;;;;;;37.13;19.30;;;;;;;9.78;97.07;100624.26;1708115;83;21023;-59
2021/10/03 06:13:57;;;;;;;45.90;23.00;;;;;;;10.27;94.46;100625.95;1731484;82;21008;-59
2021/10/03 06:16:23;;;;;;;167.13;85.42;;;;;;;10.47;92.41;100626.26;1749577;82;25178;-59
2021/10/03 06:18:51;;;;;;;163.37;98.67;;;;;;;10.54;89.39;100629.68;1749026;82;21459;-59
2021/10/03 06:21:18;;;;;;;166.45;101.50;;;;;;;10.47;89.52;100628.95;1732088;82;20935;-58
2021/10/03 06:23:46;;;;;;;37.15;22.07;;;;;;;10.59;89.81;100631.69;1692280;82;20944;-58
2021/10/03 06:26:14;;;;;;;48.80;31.10;;;;;;;10.74;89.13;100633.42;1711719;82;20821;-58
2021/10/03 06:28:42;;;;;;;32.80;23.22;;;;;;;10.82;87.17;100625.04;1689271;83;20935;-58
2021/10/03 06:31:08;;;;;;;20.75;13.70;;;;;;;10.90;85.23;100625.23;1706102;83;20900;-59
2021/10/03 06:33:37;;;;;;;40.20;25.32;;;;;;;10.87;84.67;100623.01;1705931;83;20981;-59
2021/10/03 06:36:06;;;;;;;16.97;11.90;;;;;;;11.08;85.12;100623.02;1705786;83;20881;-59
2021/10/03 06:38:32;;;;;;;19.98;12.45;;;;;;;11.37;84.41;100627.48;1698845;83;21268;-59
2021/10/03 06:40:59;;;;;;;24.30;13.40;;;;;;;11.52;82.20;100623.53;1666395;85;21105;-58
2021/10/03 06:43:26;;;;;;;18.05;12.40;;;;;;;11.72;78.47;100625.33;1690479;83;20969;-59
2021/10/03 06:45:53;;;;;;;20.35;12.93;;;;;;;11.86;76.47;100637.20;1684782;83;20930;-59
2021/10/03 06:48:19;;;;;;;15.95;10.15;;;;;;;11.94;76.43;100635.52;1679916;84;20969;-59
2021/10/03 06:50:46;;;;;;;16.82;11.55;;;;;;;12.34;74.90;100640.91;1691658;82;20946;-60
2021/10/03 06:53:12;;;;;;;14.15;9.83;;;;;;;12.48;71.51;100633.38;1701970;83;23316;-59
2021/10/03 06:55:39;;;;;;;16.80;9.83;;;;;;;12.52;70.03;100639.94;1690373;84;20894;-59
2021/10/03 06:58:05;;;;;;;14.83;10.08;;;;;;;12.54;68.85;100641.86;1673229;85;20999;-59
2021/10/03 07:00:33;;;;;;;14.70;9.80;;;;;;;12.39;67.75;100642.35;1710478;81;20984;-59
2021/10/03 07:02:59;;;;;;;21.23;13.20;;;;;;;12.30;68.01;100642.46;1707550;83;20991;-59
2021/10/03 07:05:26;;;;;;;97.37;37.35;;;;;;;12.38;69.35;100648.00;1704341;83;21584;-59
2021/10/03 07:07:53;;;;;;;108.67;51.90;;;;;;;12.67;67.98;100651.52;1706913;83;20916;-59
2021/10/03 07:10:20;;;;;;;33.40;20.10;;;;;;;12.86;65.22;100648.92;1707986;82;20901;-59
2021/10/03 07:12:48;;;;;;;37.45;20.92;;;;;;;12.92;65.25;100647.13;1704170;83;21518;-58
2021/10/03 07:15:15;;;;;;;38.83;24.35;;;;;;;13.09;65.30;100643.92;1717998;81;20875;-59
2021/10/03 07:17:43;;;;;;;20.12;13.58;;;;;;;12.97;64.48;100643.70;1698137;83;21448;-57
2021/10/03 07:20:10;;;;;;;60.88;37.38;;;;;;;13.02;63.07;100635.17;1724851;83;21449;-57
2021/10/03 07:22:39;;;;;;;25.82;18.80;;;;;;;13.11;62.93;100635.60;1724506;83;20982;-59
2021/10/03 07:25:07;;;;;;;12.07;9.20;;;;;;;13.25;62.97;100640.13;1718213;81;21103;-57
2021/10/03 07:27:35;;;;;;;17.62;9.00;;;;;;;13.49;62.45;100642.97;1724812;83;21485;-59
2021/10/03 07:30:05;;;;;;;12.82;9.45;;;;;;;13.79;62.36;100644.51;1725064;82;21110;-59
2021/10/03 07:32:31;;;;;;;19.32;8.90;;;;;;;13.96;59.17;100643.09;1724913;83;20900;-59
2021/10/03 07:34:58;;;;;;;18.02;11.18;;;;;;;13.82;61.55;100652.09;1706056;83;21072;-57
2021/10/03 07:37:24;;;;;;;14.47;9.33;;;;;;;14.06;60.21;100657.26;1678831;83;21069;-60
2021/10/03 07:39:51;;;;;;;19.57;10.40;;;;;;;14.09;59.35;100652.73;1722612;83;21000;-60
2021/10/03 07:42:17;;;;;;;11.40;8.45;;;;;;;14.22;59.91;100648.84;1690085;83;21606;-59
2021/10/03 07:44:44;;;;;;;14.30;8.83;;;;;;;14.24;58.15;100654.81;1666547;83;21074;-58
2021/10/03 07:47:10;;;;;;;10.63;8.13;;;;;;;14.37;59.94;100653.87;1686970;83;20971;-57
2021/10/03 07:49:37;;;;;;;16.60;8.70;;;;;;;14.63;57.26;100656.92;1682695;83;20962;-57
2021/10/03 07:52:05;;;;;;;12.18;8.20;;;;;;;14.85;56.54;100650.66;1680131;85;21061;-57
2021/10/03 07:54:32;;;;;;;14.10;8.03;;;;;;;15.20;57.30;100659.08;1680806;83;21132;-57
2021/10/03 07:57:00;;;;;;;9.65;8.03;;;;;;;15.37;54.45;100652.73;1686148;83;21005;-58
2021/10/03 07:59:26;;;;;;;11.23;7.53;;;;;;;15.26;54.58;100667.23;1686254;85;21470;-57
2021/10/03 08:01:53;;;;;;;12.37;9.20;;;;;;;15.62;54.50;100662.38;1686159;85;22041;-57
2021/10/03 08:04:19;;;;;;;13.32;7.60;;;;;;;15.62;54.50;100662.38;1686139;85;20956;-58
2021/10/03 08:06:46;;;;;;;10.08;7.50;;;;;;;15.96;51.78;100663.44;1703621;83;21138;-57
2021/10/03 08:09:12;;;;;;;9.83;7.67;;;;;;;15.62;51.05;100665.63;1686409;85;20961;-57
2021/10/03 08:11:40;;;;;;;11.10;7.90;;;;;;;15.70;50.94;100665.70;1702710;83;20921;-58
2021/10/03 08:14:07;;;;;;;10.75;7.05;;;;;;;15.84;51.21;100657.41;1714766;82;20934;-58
2021/10/03 08:16:33;;;;;;;12.37;7.45;;;;;;;16.08;51.04;100657.27;1697297;82;20924;-59
2021/10/03 08:19:00;;;;;;;14.33;7.72;;;;;;;16.21;51.30;100669.52;1709450;82;21114;-59
2021/10/03 08:21:27;;;;;;;13.00;7.85;;;;;;;16.34;48.88;100672.30;1709381;82;20996;-58
2021/10/03 08:23:54;;;;;;;12.27;7.33;;;;;;;16.07;49.00;100664.33;1693954;82;20996;-58
2021/10/03 08:26:21;;;;;;;10.63;7.40;;;;;;;16.14;48.09;100661.36;1711108;83;21043;-59
2021/10/03 08:28:48;;;;;;;33.88;17.75;;;;;;;16.11;47.73;100663.25;1690957;83;21005;-59
2021/10/03 08:31:15;;;;;;;22.27;7.72;;;;;;;16.20;47.53;100662.48;1691634;82;21139;-59
2021/10/03 08:33:41;;;;;;;10.75;7.53;;;;;;;16.26;46.82;100661.41;1686069;83;20936;-58
2021/10/03 08:36:08;;;;;;;26.30;17.35;;;;;;;16.21;47.21;100667.35;1708196;83;20967;-58
2021/10/03 08:38:35;;;;;;;12.50;8.00;;;;;;;16.40;48.29;100672.59;1698743;83;20882;-58
2021/10/03 08:41:01;;;;;;;14.43;7.65;;;;;;;16.74;47.89;100669.45;1672185;84;21074;-58
2021/10/03 08:43:29;;;;;;;15.83;10.18;;;;;;;17.20;46.84;100675.49;1696260;84;21682;-58
2021/10/03 08:45:57;;;;;;;15.30;6.80;;;;;;;17.20;46.07;100668.19;1698387;84;20968;-59
2021/10/03 08:48:24;;;;;;;12.43;8.40;;;;;;;17.33;44.73;100667.64;1641954;86;20874;-58
2021/10/03 08:50:54;;;;;;;14.85;8.73;;;;;;;16.84;43.65;100674.91;1670843;84;21498;-59
2021/10/03 08:53:21;;;;;;;10.13;6.30;;;;;;;16.99;43.76;100677.39;1651474;86;20913;-58
2021/10/03 08:55:50;;;;;;;12.45;7.62;;;;;;;16.99;42.68;100674.67;1670997;84;22045;-59
2021/10/03 08:58:17;;;;;;;11.28;7.85;;;;;;;17.21;43.76;100669.81;1670060;86;20854;-59
2021/10/03 09:00:47;;;;;;;;;;;;;;;17.77;43.87;100664.89;1672845;86;21017;-58
2021/10/03 09:03:17;;;;;;;21.48;13.00;;;;;;;17.87;41.63;100665.45;1680478;84;22013;-58
2021/10/03 09:05:53;;;;;;;16.17;7.55;;;;;;;17.94;40.91;100667.33;1670981;84;20963;-58
2021/10/03 09:08:27;;;;;;;23.95;8.33;;;;;;;17.76;40.00;100660.53;1681177;85;21145;-58
2021/10/03 09:11:04;;;;;;;19.20;10.05;;;;;;;17.70;39.91;100661.09;1680160;84;20919;-58
2021/10/03 09:13:36;;;;;;;10.85;5.92;;;;;;;17.68;40.23;100661.91;1680922;85;20965;-58
2021/10/03 09:16:15;;;;;;;7.90;5.35;;;;;;;17.74;38.92;100664.09;1680934;84;20965;-58
2021/10/03 09:18:57;;;;;;;8.65;5.40;;;;;;;17.69;39.43;100657.31;1652229;85;21468;-59
2021/10/03 09:21:38;;;;;;;11.93;6.28;;;;;;;17.64;37.74;100652.70;1652074;86;21734;-58
2021/10/03 09:24:09;;;;;;;12.05;8.35;;;;;;;17.58;39.24;100651.88;1687618;83;21427;-58
2021/10/03 09:26:37;;;;;;;13.15;7.45;;;;;;;17.48;39.14;100632.89;1737436;82;20851;-58
2021/10/03 09:29:20;;;;;;;10.48;5.65;;;;;;;17.39;38.85;100644.02;1736404;82;21009;-59
2021/10/03 09:32:11;;;;;;;9.58;5.37;;;;;;;17.39;38.15;100650.00;1735890;82;20980;-58
2021/10/03 09:34:47;;;;;;;7.58;4.10;;;;;;;17.17;39.56;100647.01;1733498;82;21077;-58
2021/10/03 09:37:23;;;;;;;9.45;4.87;;;;;;;17.24;39.54;100638.61;1733064;82;20897;-58
2021/10/03 09:40:12;;;;;;;11.08;6.55;;;;;;;17.38;37.57;100625.31;1733468;81;20890;-58
2021/10/03 09:42:40;;;;;;;14.98;7.03;;;;;;;17.54;39.15;100623.67;1733656;82;20946;-58
2021/10/03 09:45:12;;;;;;;6.30;3.67;;;;;;;17.79;38.70;100617.91;1732783;82;20945;-58
2021/10/03 09:47:40;;;;;;;7.65;4.20;;;;;;;17.84;37.34;100613.86;1733664;82;21116;-58
2021/10/03 09:50:10;;;;;;;4.22;3.58;;;;;;;17.43;38.52;100599.53;1733506;82;21052;-59
2021/10/03 09:52:39;;;;;;;8.83;3.80;;;;;;;17.26;39.00;100615.55;1733393;82;20953;-58
2021/10/03 09:55:09;;;;;;;6.67;3.87;;;;;;;17.20;38.52;100620.72;1733001;82;21388;-59
2021/10/03 09:57:38;;;;;;;8.25;4.12;;;;;;;17.16;39.17;100616.10;1733500;82;21337;-59
2021/10/03 10:00:07;;;;;;;10.05;5.03;;;;;;;17.21;38.13;100606.05;1733514;82;21122;-58
2021/10/03 10:02:34;;;;;;;9.78;4.25;;;;;;;17.22;39.10;100617.71;1733289;82;20881;-58
2021/10/03 10:05:01;;;;;;;8.30;4.00;;;;;;;17.08;39.15;100604.70;1733993;82;21483;-58
2021/10/03 10:07:32;;;;;;;;;;;;;;;17.04;39.15;100614.45;1735994;82;20989;-59
2021/10/03 10:09:59;;;;;;;6.53;4.62;;;;;;;17.17;38.83;100609.03;1732797;82;20120;-60
2021/10/03 10:12:26;;;;;;;8.73;5.00;;;;;;;17.24;39.34;100616.91;1733403;82;21045;-58
2021/10/03 10:15:08;;;;;;;7.78;5.37;;;;;;;17.31;38.51;100611.47;1733533;82;20870;-58
2021/10/03 10:17:41;;;;;;;6.55;4.45;;;;;;;17.29;38.42;100616.90;1733128;82;20973;-59
2021/10/03 10:20:27;;;;;;;7.97;5.22;;;;;;;17.65;37.97;100617.66;1732717;82;21146;-59
2021/10/03 10:23:06;;;;;;;7.87;4.78;;;;;;;17.91;37.29;100602.16;1733378;82;20854;-59
2021/10/03 10:25:53;;;;;;;7.20;4.33;;;;;;;17.90;37.76;100589.65;1732411;82;21207;-59
2021/10/03 10:28:31;;;;;;;7.05;4.97;;;;;;;17.79;37.65;100594.28;1733001;82;20961;-59
2021/10/03 10:31:06;;;;;;;11.38;5.67;;;;;;;17.86;37.72;100594.03;1733251;82;21503;-57
2021/10/03 10:33:57;;;;;;;9.83;5.53;;;;;;;18.42;37.34;100595.66;1704431;82;20910;-57
2021/10/03 10:36:28;;;;;;;6.80;3.98;;;;;;;18.70;36.86;100596.05;1732598;82;20988;-58
2021/10/03 10:39:14;;;;;;;7.55;4.10;;;;;;;18.47;37.32;100590.73;1733172;82;21113;-58
2021/10/03 10:41:46;;;;;;;10.40;5.28;;;;;;;18.40;36.61;100595.15;1733089;82;20866;-58
2021/10/03 10:44:29;;;;;;;9.88;4.95;;;;;;;18.52;36.76;100592.91;1733430;82;20918;-58
2021/10/03 10:46:58;;;;;;;8.75;3.87;;;;;;;18.79;36.21;100586.20;1733211;82;20941;-59
2021/10/03 10:49:40;;;;;;;9.63;4.62;;;;;;;18.53;36.17;100586.91;1733107;82;20866;-58
2021/10/03 10:52:25;;;;;;;7.75;4.33;;;;;;;18.71;36.36;100578.07;1733432;82;21043;-58
2021/10/03 10:55:09;;;;;;;12.45;5.95;;;;;;;18.62;35.12;100571.63;1733256;82;20902;-58
2021/10/03 10:57:52;;;;;;;8.10;4.40;;;;;;;18.59;37.35;100573.02;1733163;82;20968;-58
2021/10/03 11:00:24;;;;;;;6.05;4.10;;;;;;;18.71;36.85;100571.27;1733590;82;20870;-59
2021/10/03 11:03:00;;;;;;;4.08;3.08;;;;;;;18.81;35.56;100569.89;1733337;82;21415;-58
2021/10/03 11:05:46;;;;;;;9.13;4.40;;;;;;;18.59;35.12;100559.42;1733503;82;21126;-58
2021/10/03 11:08:20;;;;;;;8.83;4.17;;;;;;;18.34;36.48;100565.00;1732894;82;20827;-59
2021/10/03 11:11:09;;;;;;;14.38;3.90;;;;;;;18.51;36.27;100560.55;1733157;82;20862;-59
2021/10/03 11:13:46;;;;;;;;;;;;;;;18.91;35.95;100562.17;1735952;82;21000;-58
2021/10/03 11:16:33;;;;;;;5.47;3.98;;;;;;;19.06;34.86;100555.81;1733469;82;20120;-58
2021/10/03 11:19:10;;;;;;;;;;;;;;;18.59;36.13;100553.98;1735881;82;21109;-58
2021/10/03 11:21:38;;;;;;;6.65;3.62;;;;;;;18.89;36.35;100556.23;1733336;81;20123;-58
2021/10/03 11:24:11;;;;;;;14.53;5.25;;;;;;;18.76;35.27;100556.30;1733556;82;20969;-58